Jump to content


SKYWEST AIRLINES FLIGHT OO3833 FLOWN ON 01-24-2018 BY CAPTAIN JIM BOERMAN

Pilot StatsCaptain Jim Boerman (LDP136) • 4,917.8 total hours • 1,480 total flights [View Logbook]
FLIGHT DETAILS
StatusReceived and approved on 2018-01-24 at 11:01:16
Origin AirportMontreal-Pierre-Elliott-Trudeau (CYUL) • Montreal, Quebec, Canada (118 feet MSL)
Filed Flight PlanCYUL PLB19 J567 PLB J6 LAMED J563 ALB J37 LLUND KJFK
Destination AirportKennedy Intl (KJFK) • New York, New York, United States (13 feet MSL)
Alternate AirportWilkes-Barre-Scranton Intl (KAVP) • Wilkes-Barre, Pennsylvania, United States (962 feet MSL)
AirlineSkywest Airlines
AircraftBombardier CRJ-900 (CR9 / CRJ-900)
FS Aircraft UsedCRJ900ER Delta Airways N806SK
Cruising AltitudeFL360
Distance Flown290 nautical miles
Passengers Onboard75 passengers (87.21% full)
DEPARTURE DETAILS
Time Out11:13:03
Taxi Data71,774 lbs total with 8,603 lbs of fuel onboard
Takeoff Data11:37:18 (24 minutes after leaving gate/ramp) • 71,797 lbs total • 7° pitch at 153 knots
Departure METARCYUL 241400Z 27014G23KT 15SM SCT028 BKN090 M10/M16 A2995 RMK SC4AC2 SLP145
ARRIVAL DETAILS
Landing Data11:45:52 • 67,555 lbs total • 4° pitch doing 117 knots at a rate of -43.06 feet/minute with 3,445 lbs of fuel onboard
Time In11:54:16 (8 minutes after landing)
Ramp Weight67,289 lbs total
Total Fuel Used5,158 lbs
Total Block Time01:41:11 (1.7 hours) while 33 minutes were spent on the ground
Arrival METARKJFK 241551Z 29017G24KT 10SM SCT042 SCT050 06/M04 A2996 RMK AO2 SLP144 T00561044
MISCELLANEOUS DETAILS
LiveDISPATCH Version4.8.3.1
FS Version
FSUIPC Version5.12
OS VersionWindows 7 32-bit
Screen Resolution1920 x 1080
Pilot's CommentsNo Comments Reported
FLIGHT MAP